Time;durP1;ratioP1;P1;durP2;ratioP2;P2;SDS_P1;SDS_P2;PMS_P1;PMS_P2;Temp;Humidity;BMP_temperature;BMP_pressure;BME280_temperature;BME280_humidity;BME280_pressure;Samples;Min_cycle;Max_cycle;Signal;HPM_P1;HPM_P2
2022/12/16 00:00:22;;;;;;;65.35;27.90;;;;;;;-5.07;100.00;100910.88;5027474;28;20111;-72
2022/12/16 00:02:47;;;;;;;64.80;28.92;;;;;;;-5.00;100.00;100907.28;5025417;28;20029;-72
2022/12/16 00:05:13;;;;;;;75.03;27.98;;;;;;;-4.96;100.00;100905.50;5038631;28;20055;-72
2022/12/16 00:07:38;;;;;;;65.50;30.30;;;;;;;-4.87;100.00;100910.72;5025467;28;20037;-72
2022/12/16 00:10:04;;;;;;;63.95;29.30;;;;;;;-4.80;100.00;100899.19;5025290;28;20118;-72
2022/12/16 00:12:29;;;;;;;60.17;27.30;;;;;;;-4.73;100.00;100910.59;5026344;28;20399;-72
2022/12/16 00:14:55;;;;;;;64.72;30.58;;;;;;;-4.65;100.00;100904.34;5025434;28;20032;-72
2022/12/16 00:17:20;;;;;;;64.85;28.75;;;;;;;-4.59;100.00;100905.16;5024796;28;20049;-72
2022/12/16 00:19:46;;;;;;;64.38;27.88;;;;;;;-4.52;100.00;100909.50;5026308;28;20375;-72
2022/12/16 00:22:11;;;;;;;61.97;28.27;;;;;;;-4.49;100.00;100902.41;5026325;28;20104;-72
2022/12/16 00:24:36;;;;;;;68.32;28.23;;;;;;;-4.44;100.00;100905.88;5026437;28;20469;-72
2022/12/16 00:27:02;;;;;;;58.92;29.23;;;;;;;-4.37;100.00;100893.44;5025955;28;20115;-72
2022/12/16 00:29:27;;;;;;;55.65;28.10;;;;;;;-4.32;100.00;100896.06;5027354;28;20045;-72
2022/12/16 00:31:53;;;;;;;62.45;27.90;;;;;;;-4.28;100.00;100895.13;5039100;28;20139;-72
2022/12/16 00:34:18;;;;;;;68.47;29.98;;;;;;;-4.26;100.00;100886.22;5039755;28;20025;-72
2022/12/16 00:36:43;;;;;;;54.50;28.45;;;;;;;-4.19;100.00;100893.25;5028063;28;20578;-72
2022/12/16 00:39:10;;;;;;;70.97;31.13;;;;;;;-4.15;100.00;100894.97;5030002;28;20019;-72
2022/12/16 00:41:36;;;;;;;62.33;29.98;;;;;;;-4.10;100.00;100894.91;5038845;28;20064;-72
2022/12/16 00:44:02;;;;;;;62.72;31.25;;;;;;;-4.06;100.00;100901.03;5049940;28;20574;-73
2022/12/16 00:46:28;;;;;;;65.70;29.45;;;;;;;-4.01;100.00;100907.19;5032437;28;20052;-72
2022/12/16 00:48:53;;;;;;;69.97;31.15;;;;;;;-3.95;100.00;100902.69;5036247;28;20029;-72
2022/12/16 00:51:19;;;;;;;59.97;30.33;;;;;;;-3.89;100.00;100910.56;5030538;28;20483;-73
2022/12/16 00:53:44;;;;;;;57.30;27.25;;;;;;;-3.82;100.00;100913.16;5028530;28;20076;-73
2022/12/16 00:56:13;;;;;;;63.88;29.90;;;;;;;-3.78;100.00;100902.47;5028589;28;20067;-73
2022/12/16 00:58:39;;;;;;;57.63;27.27;;;;;;;-3.73;100.00;100907.72;5029274;28;20025;-72
2022/12/16 01:01:05;;;;;;;62.20;30.50;;;;;;;-3.72;100.00;100913.03;5042737;28;20040;-72
2022/12/16 01:03:31;;;;;;;58.80;28.67;;;;;;;-3.67;100.00;100910.31;5032280;28;20503;-72
2022/12/16 01:05:56;;;;;;;60.22;29.60;;;;;;;-3.67;100.00;100911.19;5032354;28;20044;-72
2022/12/16 01:08:21;;;;;;;71.05;29.27;;;;;;;-3.62;100.00;100917.31;5030009;28;20060;-73
2022/12/16 01:10:52;;;;;;;67.10;30.92;;;;;;;-3.55;100.00;100922.53;5029821;28;20109;-72
2022/12/16 01:13:18;;;;;;;62.05;28.75;;;;;;;-3.52;100.00;100922.53;5047698;28;20040;-72
2022/12/16 01:15:43;;;;;;;62.80;29.45;;;;;;;-3.51;100.00;100916.28;5046303;28;20504;-73
2022/12/16 01:18:09;;;;;;;63.70;30.00;;;;;;;-3.50;100.00;100926.91;5028814;28;20049;-73
2022/12/16 01:20:35;;;;;;;66.28;31.00;;;;;;;-3.47;100.00;100926.88;5035200;28;20112;-72
2022/12/16 01:23:00;;;;;;;67.90;31.05;;;;;;;-3.47;100.00;100926.88;5029181;28;20041;-73
2022/12/16 01:25:26;;;;;;;64.05;31.50;;;;;;;-3.45;100.00;100929.50;5028785;28;20033;-73
2022/12/16 01:27:51;;;;;;;60.75;28.15;;;;;;;-3.41;100.00;100939.19;5029604;28;20033;-73
2022/12/16 01:30:16;;;;;;;64.00;28.95;;;;;;;-3.40;100.00;100941.84;5026900;28;20038;-72
2022/12/16 01:32:42;;;;;;;60.33;31.13;;;;;;;-3.38;100.00;100945.34;5027083;28;20691;-73
2022/12/16 01:35:08;;;;;;;66.18;29.50;;;;;;;-3.37;100.00;100949.78;5028521;28;20045;-73
2022/12/16 01:37:33;;;;;;;62.53;29.67;;;;;;;-3.33;100.00;100946.16;5044416;28;20418;-73
2022/12/16 01:39:58;;;;;;;56.10;27.52;;;;;;;-3.31;100.00;100945.25;5035885;28;20025;-73
2022/12/16 01:42:27;;;;;;;63.85;29.20;;;;;;;-3.27;100.00;100950.50;5042573;28;20051;-73
2022/12/16 01:44:53;;;;;;;61.40;29.75;;;;;;;-3.24;100.00;100962.91;5047202;28;20037;-73
2022/12/16 01:47:24;;;;;;;58.50;29.23;;;;;;;-3.24;100.00;100954.94;5032726;28;20404;-73
2022/12/16 01:49:59;;;;;;;61.63;28.48;;;;;;;-3.24;100.00;100958.47;5028557;28;20038;-73
2022/12/16 01:52:35;;;;;;;57.65;25.60;;;;;;;-3.21;100.00;100954.91;5027351;28;20052;-73
2022/12/16 01:55:06;;;;;;;59.65;26.92;;;;;;;-3.20;100.00;100961.97;5028012;28;20227;-73
2022/12/16 01:58:16;;;;;;;65.82;28.75;;;;;;;-3.15;100.00;100973.41;5028221;28;20400;-73
2022/12/16 02:00:41;;;;;;;56.95;26.73;;;;;;;-3.19;100.00;100963.72;4989126;28;20049;-73
2022/12/16 02:03:08;;;;;;;64.53;30.55;;;;;;;-3.14;100.00;100977.84;5038948;28;20036;-73
2022/12/16 02:05:37;;;;;;;52.25;27.33;;;;;;;-3.13;100.00;100969.81;5028170;28;20038;-73
2022/12/16 02:08:09;;;;;;;58.53;28.33;;;;;;;-3.11;100.00;100973.34;5028031;28;20114;-73
2022/12/16 02:10:41;;;;;;;56.20;27.98;;;;;;;-3.07;100.00;100979.53;5028675;28;20041;-72
2022/12/16 02:13:21;;;;;;;57.20;27.67;;;;;;;-3.05;100.00;100982.16;5046347;28;20123;-73
2022/12/16 02:15:59;;;;;;;60.63;28.10;;;;;;;-3.04;100.00;100982.13;5025938;28;20454;-73
2022/12/16 02:18:39;;;;;;;58.42;28.60;;;;;;;-2.99;100.00;100980.25;5026089;28;20041;-73
2022/12/16 02:21:18;;;;;;;60.78;27.83;;;;;;;-2.98;100.00;100981.19;5028002;28;20110;-73
2022/12/16 02:24:10;;;;;;;56.22;30.10;;;;;;;-2.94;100.00;100993.50;5028242;28;20116;-73
2022/12/16 02:26:48;;;;;;;54.20;27.70;;;;;;;-2.93;100.00;100988.19;5026311;28;20496;-73
2022/12/16 02:29:36;;;;;;;64.82;28.98;;;;;;;-2.93;100.00;100998.81;5043386;28;20831;-72
2022/12/16 02:32:20;;;;;;;57.75;27.58;;;;;;;-2.90;100.00;100996.09;5039839;28;20563;-73
2022/12/16 02:35:02;;;;;;;56.88;25.98;;;;;;;-2.88;100.00;100990.78;5027378;28;20060;-73
2022/12/16 02:37:43;;;;;;;62.65;29.33;;;;;;;-2.86;100.00;100996.94;5027624;28;20179;-73
2022/12/16 02:40:27;;;;;;;56.05;27.90;;;;;;;-2.85;100.00;100994.25;5058786;28;20038;-73
2022/12/16 02:42:59;;;;;;;59.38;27.08;;;;;;;-2.84;100.00;100997.81;5047352;28;20120;-73
2022/12/16 02:45:28;;;;;;;49.47;24.75;;;;;;;-2.82;100.00;100994.22;5045119;28;20060;-73
2022/12/16 02:47:54;;;;;;;61.22;28.27;;;;;;;-2.83;100.00;100989.78;5027255;28;20433;-73
2022/12/16 02:50:22;;;;;;;61.35;27.80;;;;;;;-2.81;100.00;100995.09;5027726;28;20096;-73
2022/12/16 02:52:49;;;;;;;57.08;27.77;;;;;;;-2.79;100.00;101000.41;5026348;28;20060;-73
2022/12/16 02:55:15;;;;;;;59.22;28.38;;;;;;;-2.77;100.00;101004.78;5058797;28;20113;-73
2022/12/16 02:57:47;;;;;;;70.03;29.20;;;;;;;-2.76;100.00;101006.53;5025669;28;20025;-73
2022/12/16 03:00:17;;;;;;;59.47;29.67;;;;;;;-2.74;100.00;101003.88;5024573;28;20041;-73
2022/12/16 03:03:01;;;;;;;55.88;29.38;;;;;;;-2.73;100.00;100997.63;5026383;28;20552;-73
2022/12/16 03:05:33;;;;;;;56.35;28.73;;;;;;;-2.71;100.00;101006.47;5058753;28;20041;-73
2022/12/16 03:08:06;;;;;;;62.75;28.92;;;;;;;-2.70;100.00;101011.78;5042039;28;20041;-73
2022/12/16 03:10:38;;;;;;;65.53;28.90;;;;;;;-2.69;100.00;101010.88;5027024;28;20369;-73
2022/12/16 03:13:05;;;;;;;61.70;27.48;;;;;;;-2.69;100.00;101002.91;5025614;28;20118;-73
2022/12/16 03:15:33;;;;;;;65.70;30.38;;;;;;;-2.69;100.00;101002.91;5025405;28;20052;-73
2022/12/16 03:18:00;;;;;;;58.97;28.15;;;;;;;-2.64;100.00;101011.69;5025612;28;20043;-73
2022/12/16 03:20:35;;;;;;;63.08;30.58;;;;;;;-2.66;100.00;101009.94;5025071;28;20354;-73
2022/12/16 03:23:05;;;;;;;54.58;26.60;;;;;;;-2.63;100.00;101016.09;5025870;28;20033;-73
2022/12/16 03:25:34;;;;;;;61.83;29.65;;;;;;;-2.64;100.00;101017.00;5023526;28;20539;-73
2022/12/16 03:28:16;;;;;;;54.38;27.02;;;;;;;-2.63;100.00;101008.13;5022492;28;20036;-73
2022/12/16 03:30:50;;;;;;;58.50;27.95;;;;;;;-2.62;100.00;101015.19;5023316;28;20464;-73
2022/12/16 03:33:28;;;;;;;57.67;26.90;;;;;;;-2.65;100.00;101017.91;5025248;28;20045;-73
2022/12/16 03:36:00;;;;;;;64.32;28.60;;;;;;;-2.63;100.00;101018.75;5011245;28;20045;-73
2022/12/16 03:38:27;;;;;;;61.05;28.05;;;;;;;-2.62;100.00;101020.50;4980987;28;20477;-73
2022/12/16 03:40:54;;;;;;;57.97;29.23;;;;;;;-2.61;100.00;101024.97;4995942;28;20792;-73
2022/12/16 03:43:20;;;;;;;67.03;30.48;;;;;;;-2.58;100.00;101029.34;4998285;28;20017;-73
2022/12/16 03:45:51;;;;;;;59.90;29.55;;;;;;;-2.58;100.00;101032.88;5018183;28;20038;-73
2022/12/16 03:48:23;;;;;;;56.03;27.52;;;;;;;-2.58;100.00;101032.00;4992512;28;20065;-73
2022/12/16 03:50:49;;;;;;;64.70;30.50;;;;;;;-2.54;100.00;101047.03;4988259;28;20164;-73
2022/12/16 03:53:14;;;;;;;64.18;30.17;;;;;;;-2.52;100.00;101042.56;5010035;28;20511;-73
2022/12/16 03:55:40;;;;;;;57.80;29.13;;;;;;;-2.50;100.00;101046.09;5038298;28;20033;-73
2022/12/16 03:58:06;;;;;;;64.72;28.38;;;;;;;-2.51;100.00;101044.34;4973271;28;20025;-73
2022/12/16 04:00:31;;;;;;;60.00;28.45;;;;;;;-2.49;100.00;101049.63;4975330;28;20731;-73
2022/12/16 04:02:57;;;;;;;59.47;29.75;;;;;;;-2.48;100.00;101048.72;5012767;28;20369;-73
2022/12/16 04:05:22;;;;;;;59.80;28.55;;;;;;;-2.46;100.00;101053.13;5020768;28;20021;-73
2022/12/16 04:07:48;;;;;;;55.38;30.15;;;;;;;-2.47;100.00;101048.72;4985232;28;20040;-73
2022/12/16 04:10:13;;;;;;;59.88;29.90;;;;;;;-2.47;100.00;101054.03;4961813;28;20199;-74
2022/12/16 04:27:23;;;;;;;56.72;27.00;;;;;;;-2.35;100.00;101075.13;5024654;28;20056;-74
2022/12/16 04:29:19;;;;;;;60.50;28.85;;;;;;;-2.33;100.00;101069.81;4974585;28;20343;-74
2022/12/16 04:31:44;;;;;;;60.97;29.55;;;;;;;-2.32;100.00;101083.09;4981701;28;20660;-74
2022/12/16 04:34:25;;;;;;;61.67;30.55;;;;;;;-2.31;100.00;101083.97;4992448;28;20459;-73
